createdAt,value
2018-10-05T00:00:37.725Z,10.40
2018-10-05T00:03:07.700Z,10.40
2018-10-05T00:05:37.011Z,10.30
2018-10-05T00:08:06.645Z,10.30
2018-10-05T00:10:35.977Z,10.30
2018-10-05T00:13:05.320Z,10.30
2018-10-05T00:15:34.896Z,10.40
2018-10-05T00:18:03.978Z,10.30
2018-10-05T00:20:33.884Z,10.30
2018-10-05T00:23:03.138Z,10.30
2018-10-05T00:25:32.558Z,10.20
2018-10-05T00:28:00.900Z,10.20
2018-10-05T00:30:29.477Z,10.20
2018-10-05T00:32:58.041Z,10.20
2018-10-05T00:35:26.451Z,10.10
2018-10-05T00:37:55.052Z,10.10
2018-10-05T00:40:23.429Z,10.00
2018-10-05T00:42:51.823Z,10.00
2018-10-05T00:45:20.141Z,10.00
2018-10-05T00:47:49.230Z,9.90
2018-10-05T00:50:18.366Z,9.90
2018-10-05T00:52:46.688Z,9.90
2018-10-05T00:55:15.099Z,9.90
2018-10-05T00:57:43.436Z,9.90
2018-10-05T01:00:11.839Z,9.80
2018-10-05T01:02:40.131Z,9.80
2018-10-05T01:05:08.476Z,9.80
2018-10-05T01:07:36.849Z,9.70
2018-10-05T01:10:05.801Z,9.70
2018-10-05T01:12:34.746Z,9.70
2018-10-05T01:15:03.067Z,9.70
2018-10-05T01:17:31.418Z,9.70
2018-10-05T01:19:59.735Z,9.70
2018-10-05T01:22:28.050Z,9.70
2018-10-05T01:24:56.399Z,9.70
2018-10-05T01:27:24.700Z,9.70
2018-10-05T01:29:52.970Z,9.70
2018-10-05T01:32:21.269Z,9.70
2018-10-05T01:34:49.628Z,9.60
2018-10-05T01:37:17.960Z,9.50
2018-10-05T01:39:46.299Z,9.50
2018-10-05T01:42:14.587Z,9.50
2018-10-05T01:44:42.908Z,9.40
2018-10-05T01:47:11.244Z,9.30
2018-10-05T01:49:39.621Z,9.40
2018-10-05T01:52:07.928Z,9.30
2018-10-05T01:54:36.235Z,9.30
2018-10-05T01:57:04.531Z,9.30
2018-10-05T01:59:32.820Z,9.30
2018-10-05T02:02:01.208Z,9.30
2018-10-05T02:04:29.528Z,9.20
2018-10-05T02:06:57.853Z,9.30
2018-10-05T02:09:26.142Z,9.20
2018-10-05T02:11:54.532Z,9.20
2018-10-05T02:14:22.843Z,9.20
2018-10-05T02:16:51.178Z,9.20
2018-10-05T02:19:19.456Z,9.20
2018-10-05T02:21:47.812Z,9.10
2018-10-05T02:24:16.104Z,9.20
2018-10-05T02:26:44.411Z,9.10
2018-10-05T02:29:12.715Z,9.10
2018-10-05T02:31:41.102Z,9.00
2018-10-05T02:34:09.410Z,9.00
2018-10-05T02:36:37.788Z,9.00
2018-10-05T02:39:08.641Z,9.00
2018-10-05T02:41:36.975Z,8.90
2018-10-05T02:44:05.387Z,9.00
2018-10-05T02:46:33.732Z,8.90
2018-10-05T02:49:02.008Z,8.80
2018-10-05T02:51:30.539Z,8.80
2018-10-05T02:53:58.898Z,8.80
2018-10-05T02:56:27.319Z,8.80
2018-10-05T02:58:55.619Z,8.80
2018-10-05T03:01:35.323Z,8.80
2018-10-05T03:04:03.711Z,8.70
2018-10-05T03:06:38.468Z,8.60
2018-10-05T03:09:07.100Z,8.70
2018-10-05T03:11:35.440Z,8.60
2018-10-05T03:14:03.987Z,8.60
2018-10-05T03:16:32.439Z,8.60
2018-10-05T03:19:00.719Z,8.50
2018-10-05T03:21:29.030Z,8.50
2018-10-05T03:23:57.367Z,8.50
2018-10-05T03:26:25.729Z,8.50
2018-10-05T03:28:54.046Z,8.50
2018-10-05T03:31:22.434Z,8.40
2018-10-05T03:33:53.740Z,8.30
2018-10-05T03:36:22.104Z,8.30
2018-10-05T03:38:50.475Z,8.30
2018-10-05T03:41:18.752Z,8.30
2018-10-05T03:43:47.054Z,8.30
2018-10-05T03:46:15.416Z,8.30
2018-10-05T03:48:43.795Z,8.40
2018-10-05T03:51:12.182Z,8.30
2018-10-05T03:53:40.471Z,8.30
2018-10-05T03:56:08.806Z,8.30
2018-10-05T03:58:37.115Z,8.30
2018-10-05T04:01:05.404Z,8.30
2018-10-05T04:03:33.734Z,8.30
2018-10-05T04:06:02.065Z,8.30
2018-10-05T04:08:30.363Z,8.20
2018-10-05T04:10:58.643Z,8.20
2018-10-05T04:13:26.958Z,8.20
2018-10-05T04:15:55.384Z,8.20
2018-10-05T04:18:23.709Z,8.30
2018-10-05T04:20:51.999Z,8.20
2018-10-05T04:23:20.354Z,8.10
2018-10-05T04:25:48.693Z,8.10
2018-10-05T04:28:17.065Z,8.10
2018-10-05T04:30:45.340Z,8.10
2018-10-05T04:33:13.754Z,8.10
2018-10-05T04:35:42.098Z,8.10
2018-10-05T04:38:10.428Z,8.20
2018-10-05T04:40:38.719Z,8.10
2018-10-05T04:43:07.127Z,8.00
2018-10-05T04:45:42.027Z,8.00
2018-10-05T04:48:10.353Z,8.00
2018-10-05T04:50:38.654Z,8.00
2018-10-05T04:53:07.074Z,8.10
2018-10-05T04:55:35.500Z,8.10
2018-10-05T04:58:03.776Z,8.10
2018-10-05T05:00:32.082Z,8.10
2018-10-05T05:03:00.407Z,8.10
2018-10-05T05:05:29.267Z,8.10
2018-10-05T05:07:57.539Z,8.10
2018-10-05T05:10:25.853Z,8.10
2018-10-05T05:12:54.171Z,8.10
2018-10-05T05:15:22.685Z,8.10
2018-10-05T05:17:51.016Z,8.10
2018-10-05T05:20:19.396Z,8.10
2018-10-05T05:22:47.755Z,8.10
2018-10-05T05:25:16.130Z,8.00
2018-10-05T05:27:44.524Z,8.00
2018-10-05T05:30:12.845Z,8.00
2018-10-05T05:32:41.184Z,8.10
2018-10-05T05:35:09.484Z,8.10
2018-10-05T05:37:37.791Z,8.10
2018-10-05T05:40:07.522Z,8.00
2018-10-05T05:42:36.861Z,8.00
2018-10-05T05:45:06.000Z,8.00
2018-10-05T05:47:35.180Z,8.00
2018-10-05T05:50:04.390Z,7.90
2018-10-05T05:52:33.463Z,7.90
2018-10-05T05:55:02.531Z,7.90
2018-10-05T05:57:31.316Z,8.00
2018-10-05T05:59:59.963Z,8.00
2018-10-05T06:02:28.515Z,8.00
2018-10-05T06:04:56.835Z,8.00
2018-10-05T06:07:25.856Z,8.00
2018-10-05T06:09:54.311Z,8.00
2018-10-05T06:12:22.910Z,8.00
2018-10-05T06:14:51.558Z,7.90
2018-10-05T06:17:19.873Z,8.00
2018-10-05T06:19:48.576Z,8.00
2018-10-05T06:22:17.271Z,7.80
2018-10-05T06:24:45.797Z,7.90
2018-10-05T06:27:14.367Z,7.90
2018-10-05T06:29:43.039Z,7.80
2018-10-05T06:32:11.704Z,7.90
2018-10-05T06:34:40.265Z,8.00
2018-10-05T06:37:08.868Z,7.90
2018-10-05T06:39:37.240Z,7.80
2018-10-05T06:42:05.970Z,7.70
2018-10-05T06:44:34.792Z,7.90
2018-10-05T06:47:06.105Z,8.00
2018-10-05T06:49:34.670Z,8.10
2018-10-05T06:52:03.023Z,8.20
2018-10-05T06:54:31.353Z,8.20
2018-10-05T06:56:59.698Z,8.30
2018-10-05T06:59:27.984Z,8.40
2018-10-05T07:01:56.476Z,8.40
2018-10-05T07:04:24.757Z,8.50
2018-10-05T07:06:53.104Z,8.50
2018-10-05T07:09:21.418Z,8.60
2018-10-05T07:11:49.783Z,8.70
2018-10-05T07:14:18.122Z,8.80
2018-10-05T07:16:46.464Z,8.90
2018-10-05T07:19:14.775Z,9.00
2018-10-05T07:21:43.161Z,9.00
2018-10-05T07:24:11.510Z,9.10
2018-10-05T07:26:40.025Z,9.20
2018-10-05T07:29:08.388Z,9.10
2018-10-05T07:31:36.719Z,9.10
2018-10-05T07:34:05.003Z,9.30
2018-10-05T07:36:33.331Z,9.40
2018-10-05T07:39:01.725Z,9.40
2018-10-05T07:41:30.383Z,9.60
2018-10-05T07:43:58.688Z,9.70
2018-10-05T07:46:27.000Z,9.80
2018-10-05T07:48:55.376Z,9.90
2018-10-05T07:51:23.895Z,10.00
2018-10-05T07:53:52.215Z,10.10
2018-10-05T07:56:20.579Z,10.20
2018-10-05T07:58:49.104Z,10.40
2018-10-05T08:01:17.442Z,10.50
2018-10-05T08:03:45.884Z,10.60
2018-10-05T08:06:14.192Z,10.80
2018-10-05T08:08:42.501Z,10.90
2018-10-05T08:11:10.840Z,11.00
2018-10-05T08:13:39.172Z,11.10
2018-10-05T08:16:07.888Z,11.20
2018-10-05T08:18:36.231Z,11.40
2018-10-05T08:21:04.615Z,11.50
2018-10-05T08:23:32.943Z,11.60
2018-10-05T08:26:01.226Z,11.70
2018-10-05T08:28:29.572Z,11.80
2018-10-05T08:30:57.889Z,11.90
2018-10-05T08:33:26.205Z,12.10
2018-10-05T08:35:54.500Z,12.20
2018-10-05T08:38:22.881Z,12.30
2018-10-05T08:40:51.566Z,12.40
2018-10-05T08:43:20.015Z,12.50
2018-10-05T08:45:48.344Z,12.60
2018-10-05T08:48:16.675Z,12.80
2018-10-05T08:50:45.040Z,12.90
2018-10-05T08:53:13.333Z,13.00
2018-10-05T08:55:41.630Z,13.10
2018-10-05T08:58:10.382Z,13.20
2018-10-05T09:00:38.690Z,13.30
2018-10-05T09:03:07.266Z,13.40
2018-10-05T09:05:35.623Z,13.50
2018-10-05T09:08:04.043Z,13.60
2018-10-05T09:10:32.372Z,13.70
2018-10-05T09:13:00.685Z,13.70
2018-10-05T09:15:29.038Z,13.80
2018-10-05T09:17:57.551Z,13.90
2018-10-05T09:20:25.807Z,13.90
2018-10-05T09:22:54.154Z,14.00
2018-10-05T09:25:22.450Z,14.10
2018-10-05T09:27:50.825Z,14.20
2018-10-05T09:30:19.327Z,14.30
2018-10-05T09:32:47.920Z,14.40
2018-10-05T09:35:16.228Z,14.50
2018-10-05T09:37:44.607Z,14.60
2018-10-05T09:40:12.946Z,14.60
2018-10-05T09:42:41.280Z,14.70
2018-10-05T09:45:09.815Z,14.70
2018-10-05T09:47:38.187Z,14.80
2018-10-05T09:50:06.541Z,14.80
2018-10-05T09:52:34.852Z,14.90
2018-10-05T09:55:03.195Z,15.00
2018-10-05T09:57:31.574Z,15.10
2018-10-05T09:59:59.975Z,15.20
2018-10-05T10:02:33.494Z,15.30
2018-10-05T10:05:01.816Z,15.30
2018-10-05T10:07:30.188Z,15.50
2018-10-05T10:09:58.615Z,15.80
2018-10-05T10:12:26.990Z,15.80
2018-10-05T10:14:55.440Z,15.90
2018-10-05T10:17:23.752Z,15.90
2018-10-05T10:19:52.064Z,15.90
2018-10-05T10:22:20.395Z,16.00
2018-10-05T10:24:48.743Z,16.00
2018-10-05T10:27:17.066Z,16.00
2018-10-05T10:29:45.411Z,16.00
2018-10-05T10:32:13.783Z,16.10
2018-10-05T10:34:42.127Z,16.10
2018-10-05T10:37:10.413Z,16.10
2018-10-05T10:39:38.727Z,16.20
2018-10-05T10:42:07.104Z,16.20
2018-10-05T10:44:35.448Z,16.20
2018-10-05T10:47:03.762Z,16.30
2018-10-05T10:49:32.075Z,16.40
2018-10-05T10:52:00.478Z,16.50
2018-10-05T10:54:28.852Z,16.60
2018-10-05T10:57:03.788Z,16.60
2018-10-05T10:59:32.112Z,16.70
2018-10-05T11:02:00.468Z,16.70
2018-10-05T11:04:28.839Z,16.80
2018-10-05T11:06:57.107Z,16.90
2018-10-05T11:09:25.463Z,16.90
2018-10-05T11:11:53.839Z,17.00
2018-10-05T11:14:22.161Z,17.00
2018-10-05T11:16:50.479Z,17.00
2018-10-05T11:19:18.784Z,17.10
2018-10-05T11:21:47.106Z,17.10
2018-10-05T11:24:15.444Z,17.20
2018-10-05T11:26:43.771Z,17.20
2018-10-05T11:29:12.063Z,17.40
2018-10-05T11:31:40.501Z,17.40
2018-10-05T11:34:08.840Z,17.40
2018-10-05T11:36:37.120Z,17.50
2018-10-05T11:39:06.227Z,17.50
2018-10-05T11:41:34.596Z,17.60
2018-10-05T11:44:03.167Z,17.70
2018-10-05T11:46:31.511Z,17.80
2018-10-05T11:48:59.785Z,17.90
2018-10-05T11:51:28.136Z,18.00
2018-10-05T11:53:56.500Z,18.00
2018-10-05T11:56:24.787Z,18.00
2018-10-05T11:58:53.160Z,18.00
2018-10-05T12:01:22.140Z,18.10
2018-10-05T12:03:50.644Z,18.10
2018-10-05T12:06:18.955Z,18.20
2018-10-05T12:08:47.292Z,18.30
2018-10-05T12:11:15.613Z,18.30
2018-10-05T12:13:44.054Z,18.40
2018-10-05T12:16:12.327Z,18.40
2018-10-05T12:18:40.605Z,18.40
2018-10-05T12:21:08.965Z,18.40
2018-10-05T12:23:37.301Z,18.50
2018-10-05T12:26:05.594Z,18.60
2018-10-05T12:28:33.884Z,18.60
2018-10-05T12:31:02.251Z,18.60
2018-10-05T12:33:30.560Z,18.70
2018-10-05T12:35:58.907Z,18.70
2018-10-05T12:38:27.240Z,18.80
2018-10-05T12:40:55.546Z,18.90
2018-10-05T12:43:23.843Z,18.90
2018-10-05T12:45:52.155Z,19.00
2018-10-05T12:48:20.430Z,19.10
2018-10-05T12:50:48.888Z,19.20
2018-10-05T12:53:17.179Z,19.20
2018-10-05T12:55:45.488Z,19.30
2018-10-05T12:58:13.829Z,19.30
2018-10-05T13:00:42.269Z,19.30
2018-10-05T13:03:10.650Z,19.40
2018-10-05T13:05:38.992Z,19.40
2018-10-05T13:08:07.363Z,19.50
2018-10-05T13:10:35.739Z,19.50
2018-10-05T13:13:04.282Z,19.50
2018-10-05T13:15:32.607Z,19.60
2018-10-05T13:18:00.973Z,19.60
2018-10-05T13:20:29.325Z,19.60
2018-10-05T13:22:57.627Z,19.70
2018-10-05T13:25:25.923Z,19.70
2018-10-05T13:27:54.223Z,19.70
2018-10-05T13:30:22.580Z,19.80
2018-10-05T13:32:50.929Z,19.90
2018-10-05T13:35:19.217Z,20.00
2018-10-05T13:37:47.550Z,20.10
2018-10-05T13:40:16.026Z,20.30
2018-10-05T13:42:44.447Z,20.40
2018-10-05T13:45:12.722Z,20.60
2018-10-05T13:47:41.023Z,20.80
2018-10-05T13:50:11.184Z,21.10
2018-10-05T13:52:39.585Z,21.20
2018-10-05T13:55:07.886Z,21.60
2018-10-05T13:57:36.191Z,22.00
2018-10-05T14:00:05.291Z,22.40
2018-10-05T14:02:34.323Z,22.70
2018-10-05T14:05:02.646Z,23.00
2018-10-05T14:07:31.022Z,23.50
2018-10-05T14:09:59.348Z,23.80
2018-10-05T14:12:27.665Z,24.00
2018-10-05T14:14:55.994Z,24.50
2018-10-05T14:17:24.339Z,24.80
2018-10-05T14:19:52.663Z,24.80
2018-10-05T14:22:21.012Z,25.60
2018-10-05T14:24:49.534Z,26.40
2018-10-05T14:27:17.857Z,27.00
2018-10-05T14:29:46.160Z,27.00
2018-10-05T14:32:14.479Z,27.60
2018-10-05T14:34:42.788Z,28.30
2018-10-05T14:37:11.100Z,28.30
2018-10-05T14:39:39.403Z,27.40
2018-10-05T14:42:07.725Z,26.50
2018-10-05T14:44:36.122Z,25.70
2018-10-05T14:47:04.636Z,24.90
2018-10-05T14:49:33.025Z,24.20
2018-10-05T14:52:01.495Z,23.90
2018-10-05T14:54:29.824Z,23.70
2018-10-05T14:56:58.289Z,23.50
2018-10-05T14:59:26.545Z,23.10
2018-10-05T15:01:54.932Z,23.10
2018-10-05T15:04:23.285Z,23.00
2018-10-05T15:06:51.686Z,22.80
2018-10-05T15:09:19.977Z,22.70
2018-10-05T15:11:48.346Z,22.60
2018-10-05T15:14:16.960Z,22.40
2018-10-05T15:16:45.277Z,22.30
2018-10-05T15:19:13.613Z,22.10
2018-10-05T15:21:41.919Z,22.00
2018-10-05T15:24:10.237Z,21.90
2018-10-05T15:26:38.559Z,21.90
2018-10-05T15:29:06.935Z,21.70
2018-10-05T15:31:35.232Z,21.60
2018-10-05T15:34:03.786Z,21.60
2018-10-05T15:36:32.093Z,21.50
2018-10-05T15:39:00.387Z,21.50
2018-10-05T15:41:35.122Z,21.40
2018-10-05T15:44:03.589Z,21.40
2018-10-05T15:46:55.322Z,21.30
2018-10-05T15:49:23.624Z,21.20
2018-10-05T15:51:51.935Z,21.20
2018-10-05T15:54:20.311Z,21.20
2018-10-05T15:56:48.823Z,21.10
2018-10-05T15:59:17.139Z,21.10
2018-10-05T16:01:45.690Z,21.00
2018-10-05T16:04:14.014Z,20.90
2018-10-05T16:06:42.312Z,20.90
2018-10-05T16:09:10.661Z,20.80
2018-10-05T16:11:39.259Z,20.80
2018-10-05T16:14:07.875Z,20.80
2018-10-05T16:16:36.552Z,20.70
2018-10-05T16:19:05.972Z,20.70
2018-10-05T16:21:35.144Z,20.50
2018-10-05T16:24:05.847Z,20.50
2018-10-05T16:26:34.240Z,20.40
2018-10-05T16:29:02.548Z,20.30
2018-10-05T16:31:30.915Z,20.30
2018-10-05T16:33:59.261Z,20.20
2018-10-05T16:36:27.550Z,20.10
2018-10-05T16:38:55.915Z,20.10
2018-10-05T16:41:24.209Z,20.00
2018-10-05T16:43:52.647Z,20.00
2018-10-05T16:46:20.936Z,19.90
2018-10-05T16:48:49.231Z,19.90
2018-10-05T16:51:17.536Z,19.80
2018-10-05T16:53:45.902Z,19.80
2018-10-05T16:56:14.429Z,19.70
2018-10-05T16:58:42.742Z,19.60
2018-10-05T17:01:11.063Z,19.50
2018-10-05T17:03:39.379Z,19.40
2018-10-05T17:06:07.852Z,19.40
2018-10-05T17:08:38.736Z,19.30
2018-10-05T17:11:07.054Z,19.20
2018-10-05T17:13:35.384Z,19.10
2018-10-05T17:16:03.715Z,19.00
2018-10-05T17:18:32.044Z,18.90
2018-10-05T17:21:00.424Z,18.90
2018-10-05T17:23:28.764Z,18.80
2018-10-05T17:25:57.197Z,18.80
2018-10-05T17:28:25.558Z,18.70
2018-10-05T17:30:53.956Z,18.70
2018-10-05T17:33:22.336Z,18.60
2018-10-05T17:35:50.796Z,18.60
2018-10-05T17:38:19.125Z,18.50
2018-10-05T17:40:47.552Z,18.40
2018-10-05T17:43:15.953Z,18.30
2018-10-05T17:45:44.276Z,18.30
2018-10-05T17:48:12.581Z,18.30
2018-10-05T17:50:40.999Z,18.20
2018-10-05T17:53:09.388Z,18.10
2018-10-05T17:55:37.735Z,18.00
2018-10-05T17:58:06.093Z,18.00
2018-10-05T18:00:34.403Z,17.90
2018-10-05T18:03:02.720Z,17.80
2018-10-05T18:05:31.087Z,17.80
2018-10-05T18:07:59.386Z,17.70
2018-10-05T18:10:27.700Z,17.60
2018-10-05T18:12:56.007Z,17.60
2018-10-05T18:15:24.565Z,17.50
2018-10-05T18:17:53.120Z,17.50
2018-10-05T18:20:21.526Z,17.40
2018-10-05T18:22:50.015Z,17.30
2018-10-05T18:25:18.339Z,17.30
2018-10-05T18:27:47.385Z,17.30
2018-10-05T18:30:15.802Z,17.10
2018-10-05T18:32:44.209Z,17.20
2018-10-05T18:35:12.658Z,17.00
2018-10-05T18:37:41.074Z,17.00
2018-10-05T18:40:10.150Z,17.00
2018-10-05T18:42:38.504Z,16.90
2018-10-05T18:45:07.251Z,16.90
2018-10-05T18:47:35.687Z,16.80
2018-10-05T18:50:04.076Z,16.70
2018-10-05T18:52:32.427Z,16.70
2018-10-05T18:55:00.765Z,16.70
2018-10-05T18:57:29.150Z,16.60
2018-10-05T18:59:57.621Z,16.60
2018-10-05T19:02:25.964Z,16.50
2018-10-05T19:04:54.307Z,16.50
2018-10-05T19:07:22.672Z,16.40
2018-10-05T19:09:51.171Z,16.40
2018-10-05T19:12:19.509Z,16.30
2018-10-05T19:14:47.839Z,16.30
2018-10-05T19:17:16.215Z,16.30
2018-10-05T19:19:44.528Z,16.30
2018-10-05T19:22:12.864Z,16.20
2018-10-05T19:24:41.180Z,16.10
2018-10-05T19:27:09.538Z,16.10
2018-10-05T19:29:37.866Z,15.90
2018-10-05T19:32:06.197Z,15.90
2018-10-05T19:34:34.601Z,15.90
2018-10-05T19:37:03.040Z,15.80
2018-10-05T19:39:31.338Z,15.70
2018-10-05T19:41:59.697Z,15.60
2018-10-05T19:44:28.061Z,15.50
2018-10-05T19:46:56.391Z,15.50
2018-10-05T19:49:24.719Z,15.60
2018-10-05T19:51:53.083Z,15.50
2018-10-05T19:54:21.983Z,15.50
2018-10-05T19:56:50.311Z,15.50
2018-10-05T19:59:18.609Z,15.50
2018-10-05T20:01:47.041Z,15.50
2018-10-05T20:04:15.516Z,15.50
2018-10-05T20:06:43.941Z,15.40
2018-10-05T20:09:12.344Z,15.40
2018-10-05T20:11:40.748Z,15.30
2018-10-05T20:14:09.253Z,15.30
2018-10-05T20:16:37.763Z,15.30
2018-10-05T20:19:06.079Z,15.20
2018-10-05T20:21:34.512Z,15.10
2018-10-05T20:24:03.038Z,15.10
2018-10-05T20:26:31.403Z,15.00
2018-10-05T20:28:59.824Z,15.00
2018-10-05T20:31:28.256Z,15.00
2018-10-05T20:33:56.707Z,14.90
2018-10-05T20:36:25.366Z,14.90
2018-10-05T20:38:53.756Z,14.80
2018-10-05T20:41:22.466Z,14.80
2018-10-05T20:43:51.007Z,14.80
2018-10-05T20:46:19.407Z,14.80
2018-10-05T20:48:47.832Z,14.70
2018-10-05T20:51:16.336Z,14.70
2018-10-05T20:53:44.881Z,14.70
2018-10-05T20:56:13.381Z,14.60
2018-10-05T20:58:41.791Z,14.60
2018-10-05T21:01:11.140Z,14.60
2018-10-05T21:03:39.490Z,14.50
2018-10-05T21:06:08.040Z,14.40
2018-10-05T21:08:36.404Z,14.40
2018-10-05T21:11:04.824Z,14.30
2018-10-05T21:13:33.234Z,14.30
2018-10-05T21:16:01.622Z,14.30
2018-10-05T21:18:30.035Z,14.20
2018-10-05T21:20:58.410Z,14.20
2018-10-05T21:23:26.778Z,14.10
2018-10-05T21:25:55.140Z,14.10
2018-10-05T21:28:23.512Z,14.10
2018-10-05T21:30:52.384Z,14.10
2018-10-05T21:33:20.709Z,14.00
2018-10-05T21:35:49.062Z,14.00
2018-10-05T21:38:18.183Z,13.90
2018-10-05T21:40:46.647Z,13.90
2018-10-05T21:43:14.968Z,13.80
2018-10-05T21:45:43.293Z,13.80
2018-10-05T21:48:11.675Z,13.70
2018-10-05T21:50:40.063Z,13.70
2018-10-05T21:53:08.392Z,13.70
2018-10-05T21:55:36.712Z,13.70
2018-10-05T21:58:05.058Z,13.70
2018-10-05T22:00:37.622Z,13.60
2018-10-05T22:03:05.995Z,13.60
2018-10-05T22:05:34.531Z,13.50
2018-10-05T22:08:03.150Z,13.50
2018-10-05T22:10:31.500Z,13.50
2018-10-05T22:12:59.849Z,13.50
2018-10-05T22:15:28.207Z,13.40
2018-10-05T22:17:56.633Z,13.40
2018-10-05T22:20:25.204Z,13.30
2018-10-05T22:22:53.503Z,13.30
2018-10-05T22:25:21.911Z,13.20
2018-10-05T22:27:50.231Z,13.20
2018-10-05T22:30:18.532Z,13.10
2018-10-05T22:32:46.901Z,13.20
2018-10-05T22:35:15.513Z,13.10
2018-10-05T22:37:44.001Z,13.10
2018-10-05T22:40:12.333Z,13.10
2018-10-05T22:42:44.931Z,13.00
2018-10-05T22:45:13.261Z,13.00
2018-10-05T22:47:41.591Z,13.00
2018-10-05T22:50:09.973Z,13.00
2018-10-05T22:52:38.311Z,12.90
2018-10-05T22:55:06.741Z,12.90
2018-10-05T22:57:35.182Z,12.90
2018-10-05T23:00:03.488Z,12.90
2018-10-05T23:02:31.816Z,12.80
2018-10-05T23:05:00.126Z,12.80
2018-10-05T23:07:28.558Z,12.80
2018-10-05T23:09:56.851Z,12.70
2018-10-05T23:12:25.213Z,12.70
2018-10-05T23:14:53.583Z,12.70
2018-10-05T23:17:21.924Z,12.70
2018-10-05T23:19:50.285Z,12.60
2018-10-05T23:22:18.696Z,12.60
2018-10-05T23:24:47.095Z,12.60
2018-10-05T23:27:15.438Z,12.60
2018-10-05T23:29:43.763Z,12.60
2018-10-05T23:32:12.192Z,12.50
2018-10-05T23:34:40.514Z,12.50
2018-10-05T23:37:08.883Z,12.50
2018-10-05T23:39:37.247Z,12.50
2018-10-05T23:42:05.608Z,12.40
2018-10-05T23:44:33.923Z,12.40
2018-10-05T23:47:02.275Z,12.40
2018-10-05T23:49:30.996Z,12.30
2018-10-05T23:52:09.240Z,12.40
2018-10-05T23:54:37.599Z,12.30
2018-10-05T23:57:06.029Z,12.30
